createdAt,value
2023-02-13T00:01:53.014Z,91.73
2023-02-13T00:04:19.310Z,91.70
2023-02-13T00:06:45.669Z,91.20
2023-02-13T00:09:12.066Z,90.94
2023-02-13T00:11:38.789Z,90.87
2023-02-13T00:14:05.116Z,91.42
2023-02-13T00:16:31.501Z,91.65
2023-02-13T00:18:57.807Z,91.60
2023-02-13T00:21:24.210Z,91.57
2023-02-13T00:23:50.501Z,89.90
2023-02-13T00:26:17.773Z,89.34
2023-02-13T00:28:44.668Z,89.64
2023-02-13T00:31:13.495Z,89.85
2023-02-13T00:33:40.794Z,89.59
2023-02-13T00:36:09.886Z,89.32
2023-02-13T00:38:38.172Z,89.80
2023-02-13T00:41:04.719Z,86.94
2023-02-13T00:43:32.065Z,86.35
2023-02-13T00:45:59.248Z,85.96
2023-02-13T00:48:27.413Z,84.95
2023-02-13T00:50:54.097Z,86.68
2023-02-13T00:53:22.342Z,87.96
2023-02-13T00:55:49.107Z,88.84
2023-02-13T00:58:16.915Z,89.68
2023-02-13T01:00:43.500Z,90.16
2023-02-13T01:03:10.307Z,90.54
2023-02-13T01:05:36.726Z,90.78
2023-02-13T01:08:03.140Z,91.01
2023-02-13T01:10:29.625Z,90.71
2023-02-13T01:12:55.949Z,90.97
2023-02-13T01:15:22.472Z,91.31
2023-02-13T01:17:48.804Z,90.61
2023-02-13T01:20:15.631Z,90.99
2023-02-13T01:22:42.064Z,91.18
2023-02-13T01:25:08.374Z,90.38
2023-02-13T01:27:34.775Z,90.72
2023-02-13T01:30:01.166Z,91.17
2023-02-13T01:32:27.660Z,91.39
2023-02-13T01:34:53.958Z,91.57
2023-02-13T01:37:20.405Z,91.16
2023-02-13T01:39:46.791Z,90.51
2023-02-13T01:42:17.060Z,91.23
2023-02-13T01:44:53.944Z,91.41
2023-02-13T01:47:26.334Z,91.47
2023-02-13T01:50:18.826Z,89.17
2023-02-13T01:52:55.773Z,90.09
2023-02-13T01:55:23.465Z,90.91
2023-02-13T01:57:54.768Z,90.70
2023-02-13T02:00:21.809Z,91.17
2023-02-13T02:02:53.904Z,91.10
2023-02-13T02:05:24.304Z,91.11
2023-02-13T02:07:51.398Z,91.33
2023-02-13T02:10:19.712Z,91.69
2023-02-13T02:13:13.468Z,90.87
2023-02-13T02:15:41.711Z,91.40
2023-02-13T02:18:23.273Z,89.44
2023-02-13T02:21:10.867Z,89.79
2023-02-13T02:23:52.511Z,90.62
2023-02-13T02:27:11.425Z,90.30
2023-02-13T02:30:03.450Z,89.35
2023-02-13T02:33:04.198Z,89.50
2023-02-13T02:35:46.153Z,90.19
2023-02-13T02:38:41.837Z,90.67
2023-02-13T02:41:23.312Z,89.66
2023-02-13T02:44:09.463Z,89.96
2023-02-13T02:46:56.937Z,90.78
2023-02-13T02:49:24.328Z,91.14
2023-02-13T02:52:20.896Z,91.39
2023-02-13T02:54:53.400Z,91.22
2023-02-13T02:57:25.762Z,91.89
2023-02-13T02:59:52.817Z,90.81
2023-02-13T03:02:19.720Z,91.49
2023-02-13T03:04:53.269Z,91.51
2023-02-13T03:07:20.486Z,88.42
2023-02-13T03:09:51.246Z,85.95
2023-02-13T03:12:22.483Z,87.56
2023-02-13T03:14:49.165Z,89.26
2023-02-13T03:17:18.364Z,89.64
2023-02-13T03:19:58.212Z,87.48
2023-02-13T03:22:45.168Z,88.84
2023-02-13T03:25:38.783Z,89.88
2023-02-13T03:28:25.433Z,90.92
2023-02-13T03:31:01.345Z,90.45
2023-02-13T03:33:39.199Z,87.16
2023-02-13T03:36:27.174Z,89.01
2023-02-13T03:39:23.905Z,89.14
2023-02-13T03:42:35.350Z,89.97
2023-02-13T03:45:25.840Z,89.11
2023-02-13T03:47:56.649Z,89.40
2023-02-13T03:50:26.378Z,90.05
2023-02-13T03:53:02.753Z,89.21
2023-02-13T03:55:35.688Z,87.92
2023-02-13T03:58:14.037Z,88.38
2023-02-13T04:00:44.986Z,88.16
2023-02-13T04:03:21.251Z,87.34
2023-02-13T04:05:51.926Z,87.08
2023-02-13T04:08:18.596Z,88.10
2023-02-13T04:11:01.542Z,89.18
2023-02-13T04:13:35.815Z,89.39
2023-02-13T04:16:24.520Z,89.13
2023-02-13T04:18:52.764Z,88.53
2023-02-13T04:21:19.074Z,88.49
2023-02-13T04:23:45.507Z,88.79
2023-02-13T04:26:18.099Z,87.70
2023-02-13T04:28:44.481Z,88.01
2023-02-13T04:31:11.194Z,88.33
2023-02-13T04:33:37.636Z,89.00
2023-02-13T04:36:04.365Z,88.07
2023-02-13T04:38:30.791Z,87.68
2023-02-13T04:40:57.778Z,88.10
2023-02-13T04:43:24.485Z,88.10
2023-02-13T04:45:51.549Z,88.33
2023-02-13T04:48:17.926Z,87.95
2023-02-13T04:50:44.229Z,87.56
2023-02-13T04:53:10.674Z,87.50
2023-02-13T04:55:37.045Z,87.96
2023-02-13T04:58:03.394Z,88.71
2023-02-13T05:00:30.095Z,88.91
2023-02-13T05:03:08.850Z,88.14
2023-02-13T05:05:35.938Z,88.36
2023-02-13T05:08:02.753Z,88.36
2023-02-13T05:10:29.668Z,88.45
2023-02-13T05:12:56.220Z,88.33
2023-02-13T05:15:22.878Z,89.32
2023-02-13T05:17:50.188Z,89.58
2023-02-13T05:20:17.238Z,89.33
2023-02-13T05:22:52.429Z,89.23
2023-02-13T05:25:18.771Z,89.53
2023-02-13T05:27:45.359Z,89.30
2023-02-13T05:30:12.867Z,89.47
2023-02-13T05:32:39.243Z,89.68
2023-02-13T05:35:05.998Z,89.85
2023-02-13T05:37:32.441Z,89.76
2023-02-13T05:39:58.771Z,89.31
2023-02-13T05:42:25.477Z,89.14
2023-02-13T05:44:52.026Z,88.95
2023-02-13T05:47:18.327Z,89.17
2023-02-13T05:49:44.700Z,89.29
2023-02-13T05:52:11.292Z,89.38
2023-02-13T05:54:37.957Z,89.78
2023-02-13T05:57:04.652Z,89.44
2023-02-13T05:59:31.080Z,89.45
2023-02-13T06:01:57.515Z,89.66
2023-02-13T06:04:23.929Z,89.83
2023-02-13T06:06:50.234Z,89.42
2023-02-13T06:09:16.532Z,89.02
2023-02-13T06:11:42.932Z,88.76
2023-02-13T06:14:09.254Z,88.98
2023-02-13T06:16:35.638Z,88.30
2023-02-13T06:19:01.932Z,88.52
2023-02-13T06:21:28.313Z,88.77
2023-02-13T06:23:55.058Z,89.32
2023-02-13T06:26:21.417Z,89.20
2023-02-13T06:28:47.957Z,88.83
2023-02-13T06:31:14.345Z,88.93
2023-02-13T06:33:40.809Z,88.91
2023-02-13T06:36:07.504Z,88.90
2023-02-13T06:38:33.885Z,89.05
2023-02-13T06:41:01.695Z,88.32
2023-02-13T06:43:28.261Z,87.93
2023-02-13T06:45:54.558Z,87.09
2023-02-13T06:48:20.958Z,87.19
2023-02-13T06:50:47.361Z,88.05
2023-02-13T06:53:13.728Z,87.81
2023-02-13T06:55:40.244Z,88.34
2023-02-13T06:58:06.682Z,88.51
2023-02-13T07:00:35.442Z,88.96
2023-02-13T07:03:05.216Z,87.96
2023-02-13T07:05:32.201Z,88.13
2023-02-13T07:08:00.080Z,88.24
2023-02-13T07:10:26.573Z,88.85
2023-02-13T07:13:04.917Z,89.38
2023-02-13T07:15:36.100Z,88.84
2023-02-13T07:18:04.887Z,87.55
2023-02-13T07:20:31.322Z,87.82
2023-02-13T07:22:59.083Z,87.99
2023-02-13T07:25:27.003Z,87.95
2023-02-13T07:27:53.634Z,86.82
2023-02-13T07:30:20.728Z,87.23
2023-02-13T07:32:47.289Z,87.55
2023-02-13T07:35:13.733Z,87.16
2023-02-13T07:37:40.397Z,86.78
2023-02-13T07:40:07.915Z,86.72
2023-02-13T07:42:34.688Z,87.14
2023-02-13T07:45:01.173Z,85.28
2023-02-13T07:47:27.994Z,85.52
2023-02-13T07:49:54.365Z,85.88
2023-02-13T07:52:21.178Z,85.74
2023-02-13T07:54:48.018Z,86.23
2023-02-13T07:57:15.831Z,84.93
2023-02-13T07:59:42.211Z,85.19
2023-02-13T08:02:13.356Z,85.90
2023-02-13T08:04:40.629Z,85.18
2023-02-13T08:07:07.682Z,84.88
2023-02-13T08:09:33.995Z,85.14
2023-02-13T08:12:00.955Z,85.37
2023-02-13T08:14:27.676Z,85.02
2023-02-13T08:16:55.172Z,85.45
2023-02-13T08:19:21.968Z,85.54
2023-02-13T08:21:48.373Z,83.66
2023-02-13T08:24:15.783Z,84.16
2023-02-13T08:26:42.103Z,83.65
2023-02-13T08:29:08.404Z,82.66
2023-02-13T08:31:37.130Z,82.46
2023-02-13T08:34:03.949Z,83.54
2023-02-13T08:36:31.496Z,84.06
2023-02-13T08:38:57.816Z,83.27
2023-02-13T08:41:24.303Z,82.60
2023-02-13T08:43:50.645Z,80.25
2023-02-13T08:46:17.904Z,80.54
2023-02-13T08:48:44.663Z,81.11
2023-02-13T08:51:13.034Z,80.07
2023-02-13T08:53:40.311Z,78.92
2023-02-13T08:56:06.815Z,80.11
2023-02-13T08:58:33.483Z,79.86
2023-02-13T09:01:00.170Z,79.85
2023-02-13T09:03:26.890Z,79.71
2023-02-13T09:05:53.183Z,80.39
2023-02-13T09:08:19.486Z,79.02
2023-02-13T09:10:46.021Z,77.20
2023-02-13T09:13:12.488Z,74.83
2023-02-13T09:15:39.661Z,75.26
2023-02-13T09:18:06.881Z,74.50
2023-02-13T09:20:35.743Z,74.30
2023-02-13T09:23:02.321Z,75.67
2023-02-13T09:25:29.119Z,74.37
2023-02-13T09:27:55.482Z,73.30
2023-02-13T09:30:22.452Z,74.42
2023-02-13T09:32:50.440Z,74.19
2023-02-13T09:35:18.034Z,75.59
2023-02-13T09:37:44.844Z,72.84
2023-02-13T09:40:41.804Z,69.93
2023-02-13T09:43:15.835Z,70.04
2023-02-13T09:46:02.303Z,69.92
2023-02-13T09:48:37.279Z,68.53
2023-02-13T09:51:04.362Z,66.11
2023-02-13T09:53:31.057Z,65.34
2023-02-13T09:56:22.317Z,63.56
2023-02-13T09:58:54.196Z,66.63
2023-02-13T10:01:31.910Z,65.41
2023-02-13T10:04:28.569Z,63.81
2023-02-13T10:07:34.160Z,62.40
2023-02-13T10:10:22.370Z,60.16
2023-02-13T10:13:07.783Z,61.67
2023-02-13T10:15:51.484Z,63.29
2023-02-13T10:18:24.929Z,64.41
2023-02-13T10:20:54.845Z,62.59
2023-02-13T10:23:32.501Z,63.83
2023-02-13T10:26:02.298Z,64.32
2023-02-13T10:28:35.136Z,66.50
2023-02-13T10:31:11.090Z,66.57
2023-02-13T10:33:50.012Z,65.71
2023-02-13T10:36:26.412Z,66.08
2023-02-13T10:39:05.249Z,65.67
2023-02-13T10:41:34.289Z,64.14
2023-02-13T10:44:22.043Z,64.58
2023-02-13T10:47:07.163Z,64.74
2023-02-13T10:50:13.544Z,62.46
2023-02-13T10:53:00.158Z,61.64
2023-02-13T10:55:46.129Z,63.39
2023-02-13T10:58:20.772Z,62.05
2023-02-13T11:00:56.301Z,59.96
2023-02-13T11:03:24.393Z,58.52
2023-02-13T11:05:51.913Z,55.43
2023-02-13T11:08:32.354Z,54.93
2023-02-13T11:10:58.802Z,54.92
2023-02-13T11:13:28.198Z,52.13
2023-02-13T11:16:05.996Z,50.91
2023-02-13T11:18:41.673Z,50.16
2023-02-13T11:21:11.945Z,49.27
2023-02-13T11:23:43.072Z,49.68
2023-02-13T11:26:15.244Z,49.63
2023-02-13T11:28:50.252Z,50.26
2023-02-13T11:31:30.510Z,49.99
2023-02-13T11:33:59.260Z,49.29
2023-02-13T11:36:34.100Z,50.01
2023-02-13T11:39:19.658Z,51.26
2023-02-13T11:41:47.853Z,51.97
2023-02-13T11:44:26.098Z,54.33
2023-02-13T11:46:55.205Z,54.77
2023-02-13T11:49:24.583Z,54.54
2023-02-13T11:51:54.438Z,55.14
2023-02-13T11:54:29.766Z,55.59
2023-02-13T11:57:06.783Z,54.80
2023-02-13T11:59:41.129Z,54.44
2023-02-13T12:02:13.788Z,53.58
2023-02-13T12:04:41.425Z,51.70
2023-02-13T12:07:18.942Z,52.63
2023-02-13T12:09:48.778Z,53.59
2023-02-13T12:12:21.920Z,54.24
2023-02-13T12:14:49.582Z,52.78
2023-02-13T12:17:36.304Z,54.60
2023-02-13T12:20:04.140Z,56.62
2023-02-13T12:22:59.832Z,55.88
2023-02-13T12:25:32.695Z,57.52
2023-02-13T12:28:16.695Z,56.63
2023-02-13T12:31:14.041Z,55.71
2023-02-13T12:34:00.488Z,54.90
2023-02-13T12:37:00.829Z,51.96
2023-02-13T12:39:44.952Z,54.30
2023-02-13T12:42:38.281Z,55.63
2023-02-13T12:45:31.163Z,55.46
2023-02-13T12:48:25.162Z,55.14
2023-02-13T12:51:16.446Z,53.96
2023-02-13T12:53:56.295Z,52.10
2023-02-13T12:56:33.494Z,52.14
2023-02-13T12:59:18.336Z,51.87
2023-02-13T13:01:56.444Z,51.83
2023-02-13T13:04:41.417Z,51.27
2023-02-13T13:07:44.896Z,49.92
2023-02-13T13:10:32.404Z,49.31
2023-02-13T13:13:04.525Z,47.89
2023-02-13T13:15:59.251Z,49.11
2023-02-13T13:19:01.969Z,48.37
2023-02-13T13:21:41.658Z,48.09
2023-02-13T13:24:47.480Z,47.34
2023-02-13T13:27:30.802Z,47.57
2023-02-13T13:30:24.483Z,47.84
2023-02-13T13:32:57.052Z,48.56
2023-02-13T13:35:23.882Z,50.59
2023-02-13T13:38:00.080Z,48.26
2023-02-13T13:40:51.809Z,47.40
2023-02-13T13:43:26.736Z,47.53
2023-02-13T13:46:08.739Z,48.68
2023-02-13T13:48:51.753Z,49.95
2023-02-13T13:51:19.016Z,50.12
2023-02-13T13:54:00.705Z,50.43
2023-02-13T13:56:52.941Z,50.30
2023-02-13T13:59:40.823Z,49.35
2023-02-13T14:02:33.693Z,49.04
2023-02-13T14:05:01.906Z,50.63
2023-02-13T14:07:35.713Z,50.43
2023-02-13T14:10:02.367Z,51.92
2023-02-13T14:12:29.458Z,52.36
2023-02-13T14:14:57.080Z,50.44
2023-02-13T14:17:45.220Z,49.04
2023-02-13T14:20:34.133Z,47.07
2023-02-13T14:23:13.530Z,47.07
2023-02-13T14:25:40.208Z,44.55
2023-02-13T14:28:06.973Z,45.20
2023-02-13T14:30:37.021Z,45.46
2023-02-13T14:33:07.025Z,46.93
2023-02-13T14:35:39.082Z,48.66
2023-02-13T14:38:08.552Z,49.93
2023-02-13T14:40:43.255Z,51.38
2023-02-13T14:43:22.231Z,51.02
2023-02-13T14:46:09.005Z,51.41
2023-02-13T14:48:41.966Z,51.72
2023-02-13T14:51:19.993Z,50.30
2023-02-13T14:53:51.994Z,49.52
2023-02-13T14:56:20.969Z,50.12
2023-02-13T14:58:52.413Z,49.90
2023-02-13T15:01:28.726Z,48.41
2023-02-13T15:04:03.744Z,49.11
2023-02-13T15:06:34.068Z,48.56
2023-02-13T15:09:04.834Z,48.03
2023-02-13T15:11:40.210Z,47.21
2023-02-13T15:14:25.071Z,45.89
2023-02-13T15:16:56.733Z,46.33
2023-02-13T15:19:24.839Z,46.68
2023-02-13T15:22:00.120Z,47.97
2023-02-13T15:24:30.354Z,49.63
2023-02-13T15:27:03.787Z,52.30
2023-02-13T15:29:44.291Z,53.48
2023-02-13T15:32:20.457Z,54.73
2023-02-13T15:34:48.695Z,56.10
2023-02-13T15:37:23.600Z,56.29
2023-02-13T15:39:50.106Z,57.46
2023-02-13T15:42:16.495Z,57.71
2023-02-13T15:44:46.202Z,59.12
2023-02-13T15:47:27.308Z,59.44
2023-02-13T15:49:54.232Z,60.42
2023-02-13T15:52:36.575Z,59.20
2023-02-13T15:55:02.934Z,59.97
2023-02-13T15:57:29.883Z,61.52
2023-02-13T15:59:59.373Z,61.95
2023-02-13T16:02:40.096Z,62.46
2023-02-13T16:05:07.255Z,61.10
2023-02-13T16:07:57.871Z,59.91
2023-02-13T16:10:30.674Z,60.36
2023-02-13T16:12:59.577Z,62.08
2023-02-13T16:15:29.671Z,63.04
2023-02-13T16:17:57.010Z,63.62
2023-02-13T16:20:26.328Z,64.87
2023-02-13T16:23:06.512Z,66.10
2023-02-13T16:25:36.748Z,66.77
2023-02-13T16:28:14.113Z,67.02
2023-02-13T16:30:43.427Z,67.96
2023-02-13T16:33:22.077Z,68.20
2023-02-13T16:35:54.529Z,69.08
2023-02-13T16:38:36.298Z,69.62
2023-02-13T16:41:25.843Z,69.96
2023-02-13T16:43:53.939Z,70.99
2023-02-13T16:46:29.195Z,71.60
2023-02-13T16:48:58.307Z,72.05
2023-02-13T16:51:36.945Z,72.34
2023-02-13T16:54:10.696Z,72.57
2023-02-13T16:56:43.476Z,73.02
2023-02-13T16:59:23.862Z,73.90
2023-02-13T17:02:03.566Z,73.46
2023-02-13T17:04:30.625Z,73.67
2023-02-13T17:06:57.264Z,74.47
2023-02-13T17:09:23.658Z,75.18
2023-02-13T17:11:53.474Z,75.34
2023-02-13T17:14:20.180Z,75.56
2023-02-13T17:16:48.215Z,75.19
2023-02-13T17:19:15.084Z,75.63
2023-02-13T17:21:41.562Z,76.44
2023-02-13T17:24:16.316Z,76.77
2023-02-13T17:26:42.617Z,76.49
2023-02-13T17:29:09.023Z,76.45
2023-02-13T17:31:36.605Z,76.81
2023-02-13T17:34:03.161Z,77.02
2023-02-13T17:36:29.452Z,77.23
2023-02-13T17:38:55.830Z,77.60
2023-02-13T17:41:22.965Z,78.01
2023-02-13T17:43:49.332Z,78.00
2023-02-13T17:46:15.919Z,77.96
2023-02-13T17:48:42.520Z,78.28
2023-02-13T17:51:14.129Z,78.33
2023-02-13T17:53:40.683Z,78.67
2023-02-13T17:56:06.976Z,79.11
2023-02-13T17:58:33.346Z,79.47
2023-02-13T18:00:59.914Z,79.35
2023-02-13T18:03:26.574Z,79.02
2023-02-13T18:05:53.113Z,79.58
2023-02-13T18:08:19.514Z,80.42
2023-02-13T18:10:46.153Z,80.07
2023-02-13T18:13:12.530Z,80.54
2023-02-13T18:15:42.396Z,80.59
2023-02-13T18:18:09.940Z,80.09
2023-02-13T18:20:36.490Z,80.05
2023-02-13T18:23:03.159Z,80.25
2023-02-13T18:25:29.521Z,79.86
2023-02-13T18:27:55.949Z,80.30
2023-02-13T18:30:22.446Z,80.21
2023-02-13T18:32:54.367Z,79.98
2023-02-13T18:35:22.128Z,80.45
2023-02-13T18:37:49.653Z,80.67
2023-02-13T18:40:16.219Z,80.54
2023-02-13T18:42:42.522Z,80.40
2023-02-13T18:45:09.869Z,80.75
2023-02-13T18:47:36.174Z,80.93
2023-02-13T18:50:02.474Z,81.03
2023-02-13T18:52:29.259Z,81.30
2023-02-13T18:54:55.579Z,81.60
2023-02-13T18:57:22.021Z,81.44
2023-02-13T18:59:48.320Z,81.87
2023-02-13T19:02:14.689Z,81.73
2023-02-13T19:04:41.417Z,81.53
2023-02-13T19:07:07.826Z,81.80
2023-02-13T19:09:34.292Z,82.10
2023-02-13T19:12:00.596Z,82.80
2023-02-13T19:14:27.006Z,82.64
2023-02-13T19:16:53.437Z,82.56
2023-02-13T19:19:19.727Z,82.47
2023-02-13T19:21:46.111Z,82.25
2023-02-13T19:24:12.632Z,82.60
2023-02-13T19:26:38.977Z,82.79
2023-02-13T19:29:05.415Z,82.66
2023-02-13T19:31:32.892Z,82.95
2023-02-13T19:34:00.233Z,83.24
2023-02-13T19:36:28.407Z,83.64
2023-02-13T19:38:56.798Z,83.36
2023-02-13T19:41:24.055Z,83.61
2023-02-13T19:43:50.853Z,83.68
2023-02-13T19:46:22.322Z,82.97
2023-02-13T19:48:49.674Z,83.12
2023-02-13T19:51:19.308Z,83.24
2023-02-13T19:53:46.120Z,83.00
2023-02-13T19:56:13.493Z,83.72
2023-02-13T19:58:41.309Z,83.75
2023-02-13T20:01:13.096Z,83.70
2023-02-13T20:03:40.412Z,84.02
2023-02-13T20:06:10.068Z,83.95
2023-02-13T20:08:37.136Z,84.14
2023-02-13T20:11:06.994Z,83.73
2023-02-13T20:13:33.664Z,83.69
2023-02-13T20:16:00.004Z,84.43
2023-02-13T20:18:26.453Z,84.17
2023-02-13T20:20:52.762Z,84.12
2023-02-13T20:23:19.059Z,84.49
2023-02-13T20:25:45.518Z,84.68
2023-02-13T20:28:11.828Z,84.38
2023-02-13T20:30:43.033Z,84.10
2023-02-13T20:33:10.398Z,83.67
2023-02-13T20:35:37.279Z,83.95
2023-02-13T20:38:04.087Z,83.78
2023-02-13T20:40:30.530Z,84.40
2023-02-13T20:42:56.901Z,84.64
2023-02-13T20:45:23.206Z,85.12
2023-02-13T20:47:49.642Z,84.85
2023-02-13T20:50:16.016Z,84.83
2023-02-13T20:52:42.444Z,84.81
2023-02-13T20:55:08.884Z,85.02
2023-02-13T20:57:35.993Z,85.06
2023-02-13T21:00:08.148Z,84.76
2023-02-13T21:02:34.562Z,84.35
2023-02-13T21:05:01.026Z,84.46
2023-02-13T21:07:27.327Z,84.45
2023-02-13T21:09:53.825Z,85.00
2023-02-13T21:12:20.129Z,84.77
2023-02-13T21:14:46.773Z,84.60
2023-02-13T21:17:13.074Z,84.59
2023-02-13T21:19:39.753Z,84.90
2023-02-13T21:22:06.050Z,84.92
2023-02-13T21:24:32.346Z,84.88
2023-02-13T21:26:58.770Z,85.20
2023-02-13T21:29:25.322Z,85.44
2023-02-13T21:31:51.635Z,85.74
2023-02-13T21:34:18.558Z,85.30
2023-02-13T21:36:45.371Z,85.40
2023-02-13T21:39:12.736Z,85.45
2023-02-13T21:41:40.925Z,85.03
2023-02-13T21:44:07.678Z,85.39
2023-02-13T21:46:34.114Z,85.90
2023-02-13T21:49:03.613Z,85.94
2023-02-13T21:51:32.125Z,86.07
2023-02-13T21:53:58.783Z,86.19
2023-02-13T21:56:31.027Z,86.25
2023-02-13T21:58:57.782Z,86.58
2023-02-13T22:01:29.953Z,87.13
2023-02-13T22:04:00.843Z,86.55
2023-02-13T22:06:29.871Z,86.59
2023-02-13T22:09:09.738Z,86.43
2023-02-13T22:11:36.667Z,86.98
2023-02-13T22:14:05.754Z,87.12
2023-02-13T22:16:34.764Z,87.29
2023-02-13T22:19:01.971Z,87.03
2023-02-13T22:21:30.411Z,86.54
2023-02-13T22:23:57.317Z,86.79
2023-02-13T22:26:32.907Z,86.56
2023-02-13T22:29:07.640Z,86.34
2023-02-13T22:31:35.262Z,85.93
2023-02-13T22:34:04.223Z,86.34
2023-02-13T22:36:32.777Z,86.32
2023-02-13T22:38:59.361Z,86.58
2023-02-13T22:41:26.949Z,86.23
2023-02-13T22:43:53.588Z,86.23
2023-02-13T22:46:22.510Z,86.65
2023-02-13T22:48:49.621Z,87.34
2023-02-13T22:51:19.489Z,87.57
2023-02-13T22:53:45.958Z,87.76
2023-02-13T22:56:12.395Z,87.67
2023-02-13T22:58:39.173Z,87.39
2023-02-13T23:01:17.731Z,87.40
2023-02-13T23:03:44.858Z,87.39
2023-02-13T23:06:13.971Z,87.58
2023-02-13T23:08:41.355Z,87.57
2023-02-13T23:11:13.482Z,87.57
2023-02-13T23:13:39.803Z,87.49
2023-02-13T23:16:12.804Z,87.12
2023-02-13T23:18:39.322Z,87.09
2023-02-13T23:21:07.321Z,86.99
2023-02-13T23:23:37.938Z,87.38
2023-02-13T23:26:06.684Z,87.82
2023-02-13T23:28:33.652Z,87.93
2023-02-13T23:31:00.691Z,88.05
2023-02-13T23:33:27.601Z,88.14
2023-02-13T23:35:54.232Z,87.92
2023-02-13T23:38:21.438Z,88.22
2023-02-13T23:40:47.957Z,88.04
2023-02-13T23:43:14.373Z,88.04
2023-02-13T23:45:40.675Z,88.32
2023-02-13T23:48:07.094Z,88.02
2023-02-13T23:50:33.478Z,88.11
2023-02-13T23:53:00.398Z,88.29
2023-02-13T23:55:27.220Z,88.29
2023-02-13T23:57:54.014Z,88.47
